Terminal Aerodrome Forecast
Issued by NWS Charleston, WV

Home | Current Version | Previous Version | Text Only | Print | Product List | Glossary On
Versions: 1 2 3 4 5 6 7 8 9 10 11 12 13 14 15 16 17 18 19 20 21 22 23 24 25 26
000
FTUS41 KRLX 260200 CCA
TAFEKN
TAF COR
KEKN 260236Z 2603/2624 02004KT P6SM OVC020
     FM260800 02005KT P6SM BKN025
     FM261100 36008KT P6SM BKN035
     FM261400 36010KT P6SM BKN040
     FM262100 34010G16KT P6SM SCT045=

USA.gov is the U.S. government's official web portal to all federal, state and local government web resources and services.